sensor_id;sensor_type;location;lat;lon;timestamp;P1;durP1;ratioP1;P2;durP2;ratioP2
15287;SDS011;7745;48.708;9.026;2023-04-25T00:01:37;2.70;;;1.60;;
15287;SDS011;7745;48.708;9.026;2023-04-25T00:04:03;3.53;;;2.00;;
15287;SDS011;7745;48.708;9.026;2023-04-25T00:06:31;4.40;;;1.97;;
15287;SDS011;7745;48.708;9.026;2023-04-25T00:08:58;1.60;;;1.50;;
15287;SDS011;7745;48.708;9.026;2023-04-25T00:11:24;2.33;;;2.03;;
15287;SDS011;7745;48.708;9.026;2023-04-25T00:13:51;3.00;;;2.20;;
15287;SDS011;7745;48.708;9.026;2023-04-25T00:16:19;2.10;;;1.80;;
15287;SDS011;7745;48.708;9.026;2023-04-25T00:18:47;4.17;;;2.03;;
15287;SDS011;7745;48.708;9.026;2023-04-25T00:21:16;2.10;;;1.80;;
15287;SDS011;7745;48.708;9.026;2023-04-25T00:23:44;3.67;;;2.30;;
15287;SDS011;7745;48.708;9.026;2023-04-25T00:26:11;2.70;;;2.40;;
15287;SDS011;7745;48.708;9.026;2023-04-25T00:28:38;4.10;;;2.20;;
15287;SDS011;7745;48.708;9.026;2023-04-25T00:31:05;6.53;;;2.40;;
15287;SDS011;7745;48.708;9.026;2023-04-25T00:33:32;5.23;;;2.27;;
15287;SDS011;7745;48.708;9.026;2023-04-25T00:36:01;2.43;;;2.03;;
15287;SDS011;7745;48.708;9.026;2023-04-25T00:38:27;3.73;;;1.90;;
15287;SDS011;7745;48.708;9.026;2023-04-25T00:40:54;2.33;;;1.90;;
15287;SDS011;7745;48.708;9.026;2023-04-25T00:43:22;4.87;;;2.40;;
15287;SDS011;7745;48.708;9.026;2023-04-25T00:45:51;3.63;;;2.40;;
15287;SDS011;7745;48.708;9.026;2023-04-25T00:48:20;3.60;;;2.40;;
15287;SDS011;7745;48.708;9.026;2023-04-25T00:50:49;2.50;;;2.20;;
15287;SDS011;7745;48.708;9.026;2023-04-25T00:53:19;2.97;;;2.30;;
15287;SDS011;7745;48.708;9.026;2023-04-25T00:55:46;2.93;;;2.40;;
15287;SDS011;7745;48.708;9.026;2023-04-25T00:58:15;3.83;;;2.57;;
15287;SDS011;7745;48.708;9.026;2023-04-25T01:00:43;3.37;;;2.50;;
15287;SDS011;7745;48.708;9.026;2023-04-25T01:03:11;4.93;;;2.67;;
15287;SDS011;7745;48.708;9.026;2023-04-25T01:05:38;4.63;;;2.57;;
15287;SDS011;7745;48.708;9.026;2023-04-25T01:08:06;4.13;;;3.03;;
15287;SDS011;7745;48.708;9.026;2023-04-25T01:10:35;3.27;;;2.60;;
15287;SDS011;7745;48.708;9.026;2023-04-25T01:13:02;3.60;;;2.70;;
15287;SDS011;7745;48.708;9.026;2023-04-25T01:15:29;6.13;;;3.23;;
15287;SDS011;7745;48.708;9.026;2023-04-25T01:17:56;3.43;;;2.50;;
15287;SDS011;7745;48.708;9.026;2023-04-25T01:20:23;4.07;;;2.87;;
15287;SDS011;7745;48.708;9.026;2023-04-25T01:22:53;3.40;;;2.53;;
15287;SDS011;7745;48.708;9.026;2023-04-25T01:25:21;2.83;;;2.23;;
15287;SDS011;7745;48.708;9.026;2023-04-25T01:27:48;2.77;;;2.57;;
15287;SDS011;7745;48.708;9.026;2023-04-25T01:30:15;4.73;;;2.80;;
15287;SDS011;7745;48.708;9.026;2023-04-25T01:32:42;3.13;;;2.80;;
15287;SDS011;7745;48.708;9.026;2023-04-25T01:35:10;2.50;;;2.30;;
15287;SDS011;7745;48.708;9.026;2023-04-25T01:37:38;4.97;;;2.30;;
15287;SDS011;7745;48.708;9.026;2023-04-25T01:40:07;6.13;;;2.60;;
15287;SDS011;7745;48.708;9.026;2023-04-25T01:42:36;4.20;;;2.30;;
15287;SDS011;7745;48.708;9.026;2023-04-25T01:45:03;3.60;;;2.50;;
15287;SDS011;7745;48.708;9.026;2023-04-25T01:47:31;3.70;;;2.70;;
15287;SDS011;7745;48.708;9.026;2023-04-25T01:50:00;5.90;;;2.77;;
15287;SDS011;7745;48.708;9.026;2023-04-25T01:52:27;3.03;;;2.37;;
15287;SDS011;7745;48.708;9.026;2023-04-25T01:54:53;2.30;;;2.10;;
15287;SDS011;7745;48.708;9.026;2023-04-25T01:57:22;4.13;;;2.00;;
15287;SDS011;7745;48.708;9.026;2023-04-25T01:59:49;4.37;;;1.97;;
15287;SDS011;7745;48.708;9.026;2023-04-25T02:02:16;2.43;;;1.97;;
15287;SDS011;7745;48.708;9.026;2023-04-25T02:04:43;2.07;;;1.93;;
15287;SDS011;7745;48.708;9.026;2023-04-25T02:07:10;2.20;;;2.00;;
15287;SDS011;7745;48.708;9.026;2023-04-25T02:09:37;3.40;;;1.93;;
15287;SDS011;7745;48.708;9.026;2023-04-25T02:12:04;4.33;;;2.20;;
15287;SDS011;7745;48.708;9.026;2023-04-25T02:14:32;2.80;;;2.20;;
15287;SDS011;7745;48.708;9.026;2023-04-25T02:16:59;3.93;;;2.07;;
15287;SDS011;7745;48.708;9.026;2023-04-25T02:19:38;3.03;;;2.00;;
15287;SDS011;7745;48.708;9.026;2023-04-25T02:22:15;5.43;;;2.53;;
15287;SDS011;7745;48.708;9.026;2023-04-25T02:24:42;5.37;;;2.37;;
15287;SDS011;7745;48.708;9.026;2023-04-25T02:27:08;2.87;;;2.27;;
15287;SDS011;7745;48.708;9.026;2023-04-25T02:29:37;2.47;;;2.27;;
15287;SDS011;7745;48.708;9.026;2023-04-25T02:32:04;4.23;;;2.40;;
15287;SDS011;7745;48.708;9.026;2023-04-25T02:34:31;3.47;;;2.23;;
15287;SDS011;7745;48.708;9.026;2023-04-25T02:36:58;2.67;;;2.47;;
15287;SDS011;7745;48.708;9.026;2023-04-25T02:39:24;3.00;;;2.30;;
15287;SDS011;7745;48.708;9.026;2023-04-25T02:41:52;3.53;;;2.20;;
15287;SDS011;7745;48.708;9.026;2023-04-25T02:44:19;4.47;;;2.47;;
15287;SDS011;7745;48.708;9.026;2023-04-25T02:46:47;2.87;;;2.27;;
15287;SDS011;7745;48.708;9.026;2023-04-25T02:49:14;3.67;;;2.53;;
15287;SDS011;7745;48.708;9.026;2023-04-25T02:51:40;3.83;;;2.33;;
15287;SDS011;7745;48.708;9.026;2023-04-25T02:54:07;3.07;;;2.10;;
15287;SDS011;7745;48.708;9.026;2023-04-25T02:56:34;3.60;;;2.20;;
15287;SDS011;7745;48.708;9.026;2023-04-25T02:59:01;5.20;;;2.40;;
15287;SDS011;7745;48.708;9.026;2023-04-25T03:01:27;3.10;;;2.13;;
15287;SDS011;7745;48.708;9.026;2023-04-25T03:03:55;3.97;;;2.67;;
15287;SDS011;7745;48.708;9.026;2023-04-25T03:06:22;3.50;;;2.07;;
15287;SDS011;7745;48.708;9.026;2023-04-25T03:08:49;3.40;;;2.20;;
15287;SDS011;7745;48.708;9.026;2023-04-25T03:11:16;3.73;;;2.30;;
15287;SDS011;7745;48.708;9.026;2023-04-25T03:13:45;5.73;;;2.30;;
15287;SDS011;7745;48.708;9.026;2023-04-25T03:16:11;2.90;;;2.30;;
15287;SDS011;7745;48.708;9.026;2023-04-25T03:18:38;2.73;;;2.40;;
15287;SDS011;7745;48.708;9.026;2023-04-25T03:21:06;2.27;;;2.00;;
15287;SDS011;7745;48.708;9.026;2023-04-25T03:23:33;3.57;;;2.60;;
15287;SDS011;7745;48.708;9.026;2023-04-25T03:26:00;6.30;;;2.80;;
15287;SDS011;7745;48.708;9.026;2023-04-25T03:28:27;3.77;;;3.17;;
15287;SDS011;7745;48.708;9.026;2023-04-25T03:30:54;3.50;;;2.70;;
15287;SDS011;7745;48.708;9.026;2023-04-25T03:33:21;3.00;;;2.70;;
15287;SDS011;7745;48.708;9.026;2023-04-25T03:35:48;5.90;;;2.50;;
15287;SDS011;7745;48.708;9.026;2023-04-25T03:38:16;3.37;;;2.50;;
15287;SDS011;7745;48.708;9.026;2023-04-25T03:40:43;4.80;;;3.03;;
15287;SDS011;7745;48.708;9.026;2023-04-25T03:43:10;3.47;;;2.97;;
15287;SDS011;7745;48.708;9.026;2023-04-25T03:45:37;3.13;;;2.67;;
15287;SDS011;7745;48.708;9.026;2023-04-25T03:48:04;4.07;;;3.00;;
15287;SDS011;7745;48.708;9.026;2023-04-25T03:50:31;3.73;;;2.80;;
15287;SDS011;7745;48.708;9.026;2023-04-25T03:52:57;4.87;;;2.93;;
15287;SDS011;7745;48.708;9.026;2023-04-25T03:55:25;4.50;;;2.83;;
15287;SDS011;7745;48.708;9.026;2023-04-25T03:57:52;4.27;;;2.97;;
15287;SDS011;7745;48.708;9.026;2023-04-25T04:00:19;3.60;;;2.53;;
15287;SDS011;7745;48.708;9.026;2023-04-25T04:02:46;5.67;;;2.70;;
15287;SDS011;7745;48.708;9.026;2023-04-25T04:05:13;3.47;;;2.80;;
15287;SDS011;7745;48.708;9.026;2023-04-25T04:07:39;6.13;;;3.23;;
15287;SDS011;7745;48.708;9.026;2023-04-25T04:10:08;5.77;;;2.80;;
15287;SDS011;7745;48.708;9.026;2023-04-25T04:12:36;5.87;;;3.20;;
15287;SDS011;7745;48.708;9.026;2023-04-25T04:15:03;3.03;;;2.73;;
15287;SDS011;7745;48.708;9.026;2023-04-25T04:17:31;3.20;;;2.90;;
15287;SDS011;7745;48.708;9.026;2023-04-25T04:19:59;4.17;;;2.77;;
15287;SDS011;7745;48.708;9.026;2023-04-25T04:22:26;6.20;;;3.20;;
15287;SDS011;7745;48.708;9.026;2023-04-25T04:24:53;4.57;;;3.20;;
15287;SDS011;7745;48.708;9.026;2023-04-25T04:27:20;5.23;;;3.43;;
15287;SDS011;7745;48.708;9.026;2023-04-25T04:29:48;4.13;;;2.80;;
15287;SDS011;7745;48.708;9.026;2023-04-25T04:32:17;4.73;;;3.33;;
15287;SDS011;7745;48.708;9.026;2023-04-25T04:34:44;8.70;;;3.40;;
15287;SDS011;7745;48.708;9.026;2023-04-25T04:37:12;5.40;;;3.70;;
15287;SDS011;7745;48.708;9.026;2023-04-25T04:39:39;11.33;;;3.80;;
15287;SDS011;7745;48.708;9.026;2023-04-25T04:42:06;5.70;;;3.67;;
15287;SDS011;7745;48.708;9.026;2023-04-25T04:44:33;6.30;;;4.20;;
15287;SDS011;7745;48.708;9.026;2023-04-25T04:47:01;5.33;;;3.93;;
15287;SDS011;7745;48.708;9.026;2023-04-25T04:49:31;4.33;;;3.90;;
15287;SDS011;7745;48.708;9.026;2023-04-25T04:51:57;7.37;;;3.80;;
15287;SDS011;7745;48.708;9.026;2023-04-25T04:54:25;7.27;;;4.17;;
15287;SDS011;7745;48.708;9.026;2023-04-25T04:56:53;6.10;;;3.90;;
15287;SDS011;7745;48.708;9.026;2023-04-25T04:59:20;6.87;;;3.63;;
15287;SDS011;7745;48.708;9.026;2023-04-25T05:01:47;6.27;;;4.00;;
15287;SDS011;7745;48.708;9.026;2023-04-25T05:04:15;5.17;;;3.97;;
15287;SDS011;7745;48.708;9.026;2023-04-25T05:06:42;5.20;;;3.40;;
15287;SDS011;7745;48.708;9.026;2023-04-25T05:09:20;7.13;;;3.67;;
15287;SDS011;7745;48.708;9.026;2023-04-25T05:11:50;4.73;;;3.43;;
15287;SDS011;7745;48.708;9.026;2023-04-25T05:14:17;6.30;;;3.87;;
15287;SDS011;7745;48.708;9.026;2023-04-25T05:16:44;6.43;;;3.60;;
15287;SDS011;7745;48.708;9.026;2023-04-25T05:19:11;4.93;;;3.70;;
15287;SDS011;7745;48.708;9.026;2023-04-25T05:21:39;5.47;;;3.70;;
15287;SDS011;7745;48.708;9.026;2023-04-25T05:24:08;7.27;;;3.43;;
15287;SDS011;7745;48.708;9.026;2023-04-25T05:26:34;9.57;;;4.37;;
15287;SDS011;7745;48.708;9.026;2023-04-25T05:29:01;4.33;;;3.73;;
15287;SDS011;7745;48.708;9.026;2023-04-25T05:31:28;6.70;;;4.20;;
15287;SDS011;7745;48.708;9.026;2023-04-25T05:33:55;8.23;;;4.30;;
15287;SDS011;7745;48.708;9.026;2023-04-25T05:36:22;4.80;;;3.90;;
15287;SDS011;7745;48.708;9.026;2023-04-25T05:38:50;4.27;;;3.43;;
15287;SDS011;7745;48.708;9.026;2023-04-25T05:41:17;8.73;;;5.10;;
15287;SDS011;7745;48.708;9.026;2023-04-25T05:43:45;10.97;;;7.40;;
15287;SDS011;7745;48.708;9.026;2023-04-25T05:46:13;5.50;;;4.77;;
15287;SDS011;7745;48.708;9.026;2023-04-25T05:48:40;6.00;;;4.10;;
15287;SDS011;7745;48.708;9.026;2023-04-25T05:51:07;7.17;;;4.50;;
15287;SDS011;7745;48.708;9.026;2023-04-25T05:53:34;4.70;;;3.77;;
15287;SDS011;7745;48.708;9.026;2023-04-25T05:56:02;5.20;;;4.43;;
15287;SDS011;7745;48.708;9.026;2023-04-25T05:58:29;7.40;;;4.33;;
15287;SDS011;7745;48.708;9.026;2023-04-25T06:00:56;6.43;;;4.30;;
15287;SDS011;7745;48.708;9.026;2023-04-25T06:03:23;7.33;;;3.73;;
15287;SDS011;7745;48.708;9.026;2023-04-25T06:05:50;7.83;;;4.37;;
15287;SDS011;7745;48.708;9.026;2023-04-25T06:08:16;5.77;;;3.93;;
15287;SDS011;7745;48.708;9.026;2023-04-25T06:10:44;4.87;;;4.20;;
15287;SDS011;7745;48.708;9.026;2023-04-25T06:13:12;7.07;;;4.13;;
15287;SDS011;7745;48.708;9.026;2023-04-25T06:15:38;4.00;;;3.60;;
15287;SDS011;7745;48.708;9.026;2023-04-25T06:18:05;7.73;;;4.00;;
15287;SDS011;7745;48.708;9.026;2023-04-25T06:20:32;6.63;;;4.20;;
15287;SDS011;7745;48.708;9.026;2023-04-25T06:22:59;5.03;;;3.90;;
15287;SDS011;7745;48.708;9.026;2023-04-25T06:25:26;6.27;;;3.80;;
15287;SDS011;7745;48.708;9.026;2023-04-25T06:27:53;7.70;;;4.07;;
15287;SDS011;7745;48.708;9.026;2023-04-25T06:30:21;5.13;;;4.30;;
15287;SDS011;7745;48.708;9.026;2023-04-25T06:32:50;4.83;;;4.30;;
15287;SDS011;7745;48.708;9.026;2023-04-25T06:35:17;7.37;;;4.67;;
15287;SDS011;7745;48.708;9.026;2023-04-25T06:37:44;4.37;;;3.93;;
15287;SDS011;7745;48.708;9.026;2023-04-25T06:40:11;7.67;;;4.40;;
15287;SDS011;7745;48.708;9.026;2023-04-25T06:42:38;6.57;;;4.30;;
15287;SDS011;7745;48.708;9.026;2023-04-25T06:45:05;5.17;;;4.30;;
15287;SDS011;7745;48.708;9.026;2023-04-25T06:47:34;5.03;;;4.10;;
15287;SDS011;7745;48.708;9.026;2023-04-25T06:50:01;5.03;;;4.07;;
15287;SDS011;7745;48.708;9.026;2023-04-25T06:52:28;6.63;;;4.27;;
15287;SDS011;7745;48.708;9.026;2023-04-25T06:54:54;4.77;;;4.27;;
15287;SDS011;7745;48.708;9.026;2023-04-25T06:57:21;3.87;;;3.50;;
15287;SDS011;7745;48.708;9.026;2023-04-25T06:59:48;4.70;;;4.10;;
15287;SDS011;7745;48.708;9.026;2023-04-25T07:02:15;6.10;;;4.37;;
15287;SDS011;7745;48.708;9.026;2023-04-25T07:04:43;6.37;;;4.60;;
15287;SDS011;7745;48.708;9.026;2023-04-25T07:07:12;5.57;;;4.97;;
15287;SDS011;7745;48.708;9.026;2023-04-25T07:09:39;4.83;;;4.27;;
15287;SDS011;7745;48.708;9.026;2023-04-25T07:12:06;5.67;;;4.13;;
15287;SDS011;7745;48.708;9.026;2023-04-25T07:14:32;9.73;;;7.33;;
15287;SDS011;7745;48.708;9.026;2023-04-25T07:16:59;5.10;;;4.50;;
15287;SDS011;7745;48.708;9.026;2023-04-25T07:19:27;5.27;;;4.67;;
15287;SDS011;7745;48.708;9.026;2023-04-25T07:21:56;7.33;;;4.47;;
15287;SDS011;7745;48.708;9.026;2023-04-25T07:24:25;7.07;;;5.53;;
15287;SDS011;7745;48.708;9.026;2023-04-25T07:26:52;5.83;;;4.90;;
15287;SDS011;7745;48.708;9.026;2023-04-25T07:29:19;8.10;;;4.73;;
15287;SDS011;7745;48.708;9.026;2023-04-25T07:31:45;9.20;;;5.60;;
15287;SDS011;7745;48.708;9.026;2023-04-25T07:34:12;8.67;;;5.90;;
15287;SDS011;7745;48.708;9.026;2023-04-25T07:36:39;6.67;;;5.00;;
15287;SDS011;7745;48.708;9.026;2023-04-25T07:39:07;6.33;;;5.17;;
15287;SDS011;7745;48.708;9.026;2023-04-25T07:41:35;5.60;;;4.93;;
15287;SDS011;7745;48.708;9.026;2023-04-25T07:44:01;5.33;;;4.77;;
15287;SDS011;7745;48.708;9.026;2023-04-25T07:46:28;7.03;;;5.37;;
15287;SDS011;7745;48.708;9.026;2023-04-25T07:48:55;5.67;;;5.17;;
15287;SDS011;7745;48.708;9.026;2023-04-25T07:51:22;6.00;;;5.27;;
15287;SDS011;7745;48.708;9.026;2023-04-25T07:53:49;6.33;;;4.77;;
15287;SDS011;7745;48.708;9.026;2023-04-25T07:56:17;9.33;;;5.87;;
15287;SDS011;7745;48.708;9.026;2023-04-25T07:58:57;5.27;;;4.80;;
15287;SDS011;7745;48.708;9.026;2023-04-25T08:01:25;6.47;;;4.80;;
15287;SDS011;7745;48.708;9.026;2023-04-25T08:03:53;5.00;;;4.50;;
15287;SDS011;7745;48.708;9.026;2023-04-25T08:06:20;6.53;;;4.83;;
15287;SDS011;7745;48.708;9.026;2023-04-25T08:08:47;6.07;;;4.97;;
15287;SDS011;7745;48.708;9.026;2023-04-25T08:11:14;5.63;;;4.70;;
15287;SDS011;7745;48.708;9.026;2023-04-25T08:13:42;8.27;;;5.70;;
15287;SDS011;7745;48.708;9.026;2023-04-25T08:16:09;6.60;;;5.13;;
15287;SDS011;7745;48.708;9.026;2023-04-25T08:18:35;5.00;;;4.50;;
15287;SDS011;7745;48.708;9.026;2023-04-25T08:21:05;6.50;;;4.30;;
15287;SDS011;7745;48.708;9.026;2023-04-25T08:23:33;4.93;;;3.93;;
15287;SDS011;7745;48.708;9.026;2023-04-25T08:26:02;4.77;;;4.23;;
15287;SDS011;7745;48.708;9.026;2023-04-25T08:28:29;4.97;;;4.47;;
15287;SDS011;7745;48.708;9.026;2023-04-25T08:30:57;5.37;;;4.10;;
15287;SDS011;7745;48.708;9.026;2023-04-25T08:33:24;4.83;;;4.13;;
15287;SDS011;7745;48.708;9.026;2023-04-25T08:35:51;3.87;;;3.43;;
15287;SDS011;7745;48.708;9.026;2023-04-25T08:38:18;5.80;;;4.50;;
15287;SDS011;7745;48.708;9.026;2023-04-25T08:40:45;5.53;;;4.30;;
15287;SDS011;7745;48.708;9.026;2023-04-25T08:43:16;6.33;;;4.80;;
15287;SDS011;7745;48.708;9.026;2023-04-25T08:45:45;5.20;;;4.63;;
15287;SDS011;7745;48.708;9.026;2023-04-25T08:48:14;10.33;;;5.20;;
15287;SDS011;7745;48.708;9.026;2023-04-25T08:50:44;6.33;;;4.40;;
15287;SDS011;7745;48.708;9.026;2023-04-25T08:53:15;5.10;;;4.40;;
15287;SDS011;7745;48.708;9.026;2023-04-25T08:55:45;5.67;;;5.07;;
15287;SDS011;7745;48.708;9.026;2023-04-25T08:58:12;5.90;;;4.90;;
15287;SDS011;7745;48.708;9.026;2023-04-25T09:00:39;5.80;;;5.20;;
15287;SDS011;7745;48.708;9.026;2023-04-25T09:03:06;5.70;;;5.20;;
15287;SDS011;7745;48.708;9.026;2023-04-25T09:05:34;5.37;;;4.60;;
15287;SDS011;7745;48.708;9.026;2023-04-25T09:08:02;5.47;;;4.43;;
15287;SDS011;7745;48.708;9.026;2023-04-25T09:10:30;5.53;;;4.90;;
15287;SDS011;7745;48.708;9.026;2023-04-25T09:13:04;6.03;;;5.17;;
15287;SDS011;7745;48.708;9.026;2023-04-25T09:15:33;8.33;;;5.90;;
15287;SDS011;7745;48.708;9.026;2023-04-25T09:18:13;6.60;;;5.57;;
15287;SDS011;7745;48.708;9.026;2023-04-25T09:20:42;5.07;;;4.57;;
15287;SDS011;7745;48.708;9.026;2023-04-25T09:23:09;5.00;;;4.50;;
15287;SDS011;7745;48.708;9.026;2023-04-25T09:25:37;5.10;;;4.13;;
15287;SDS011;7745;48.708;9.026;2023-04-25T09:28:05;4.57;;;4.17;;
15287;SDS011;7745;48.708;9.026;2023-04-25T09:30:33;6.30;;;4.60;;
15287;SDS011;7745;48.708;9.026;2023-04-25T09:33:04;4.23;;;3.70;;
15287;SDS011;7745;48.708;9.026;2023-04-25T09:35:36;5.63;;;3.83;;
15287;SDS011;7745;48.708;9.026;2023-04-25T09:38:10;2.80;;;2.60;;
15287;SDS011;7745;48.708;9.026;2023-04-25T09:40:43;4.00;;;2.50;;
15287;SDS011;7745;48.708;9.026;2023-04-25T09:43:18;4.77;;;3.07;;
15287;SDS011;7745;48.708;9.026;2023-04-25T09:45:46;3.13;;;2.60;;
15287;SDS011;7745;48.708;9.026;2023-04-25T09:48:16;3.10;;;2.20;;
15287;SDS011;7745;48.708;9.026;2023-04-25T09:50:47;5.50;;;4.27;;
15287;SDS011;7745;48.708;9.026;2023-04-25T09:53:32;3.20;;;2.20;;
15287;SDS011;7745;48.708;9.026;2023-04-25T09:56:00;2.67;;;2.40;;
15287;SDS011;7745;48.708;9.026;2023-04-25T09:58:31;3.80;;;2.83;;
15287;SDS011;7745;48.708;9.026;2023-04-25T10:01:07;4.47;;;1.97;;
15287;SDS011;7745;48.708;9.026;2023-04-25T10:03:38;1.97;;;1.57;;
15287;SDS011;7745;48.708;9.026;2023-04-25T10:06:08;1.70;;;1.30;;
15287;SDS011;7745;48.708;9.026;2023-04-25T10:08:40;2.47;;;1.40;;
15287;SDS011;7745;48.708;9.026;2023-04-25T10:11:11;1.57;;;1.40;;
15287;SDS011;7745;48.708;9.026;2023-04-25T10:14:09;1.97;;;1.60;;
15287;SDS011;7745;48.708;9.026;2023-04-25T10:16:38;1.30;;;1.20;;
15287;SDS011;7745;48.708;9.026;2023-04-25T10:19:07;1.60;;;1.20;;
15287;SDS011;7745;48.708;9.026;2023-04-25T10:21:34;2.77;;;1.77;;
15287;SDS011;7745;48.708;9.026;2023-04-25T10:24:08;1.63;;;1.23;;
15287;SDS011;7745;48.708;9.026;2023-04-25T10:26:35;2.50;;;1.67;;
15287;SDS011;7745;48.708;9.026;2023-04-25T10:29:02;0.70;;;0.67;;
15287;SDS011;7745;48.708;9.026;2023-04-25T10:31:30;0.77;;;0.63;;
15287;SDS011;7745;48.708;9.026;2023-04-25T10:33:57;1.20;;;0.70;;
15287;SDS011;7745;48.708;9.026;2023-04-25T10:36:25;1.23;;;1.00;;
15287;SDS011;7745;48.708;9.026;2023-04-25T10:38:54;0.63;;;0.63;;
15287;SDS011;7745;48.708;9.026;2023-04-25T10:41:24;1.20;;;1.10;;
15287;SDS011;7745;48.708;9.026;2023-04-25T10:43:59;1.77;;;1.00;;
15287;SDS011;7745;48.708;9.026;2023-04-25T10:46:27;3.67;;;1.00;;
15287;SDS011;7745;48.708;9.026;2023-04-25T10:48:56;1.00;;;0.80;;
15287;SDS011;7745;48.708;9.026;2023-04-25T10:51:25;1.03;;;0.70;;
15287;SDS011;7745;48.708;9.026;2023-04-25T10:53:57;2.63;;;1.10;;
15287;SDS011;7745;48.708;9.026;2023-04-25T10:56:28;1.23;;;0.90;;
15287;SDS011;7745;48.708;9.026;2023-04-25T10:59:03;0.93;;;0.70;;
15287;SDS011;7745;48.708;9.026;2023-04-25T11:01:40;0.90;;;0.70;;
15287;SDS011;7745;48.708;9.026;2023-04-25T11:04:19;2.47;;;0.80;;
15287;SDS011;7745;48.708;9.026;2023-04-25T11:06:52;0.90;;;0.70;;
15287;SDS011;7745;48.708;9.026;2023-04-25T11:09:30;0.80;;;0.80;;
15287;SDS011;7745;48.708;9.026;2023-04-25T11:12:02;1.47;;;0.90;;
15287;SDS011;7745;48.708;9.026;2023-04-25T11:14:30;1.83;;;1.27;;
15287;SDS011;7745;48.708;9.026;2023-04-25T11:16:57;1.83;;;1.33;;
15287;SDS011;7745;48.708;9.026;2023-04-25T11:19:28;1.80;;;1.40;;
15287;SDS011;7745;48.708;9.026;2023-04-25T11:21:58;1.30;;;1.00;;
15287;SDS011;7745;48.708;9.026;2023-04-25T11:24:27;1.60;;;1.50;;
15287;SDS011;7745;48.708;9.026;2023-04-25T11:26:54;2.57;;;2.03;;
15287;SDS011;7745;48.708;9.026;2023-04-25T11:29:25;3.10;;;2.80;;
15287;SDS011;7745;48.708;9.026;2023-04-25T11:31:53;3.27;;;3.07;;
15287;SDS011;7745;48.708;9.026;2023-04-25T11:34:22;2.80;;;2.60;;
15287;SDS011;7745;48.708;9.026;2023-04-25T11:36:50;2.90;;;2.60;;
15287;SDS011;7745;48.708;9.026;2023-04-25T11:39:18;2.40;;;2.20;;
15287;SDS011;7745;48.708;9.026;2023-04-25T11:41:47;2.70;;;2.33;;
15287;SDS011;7745;48.708;9.026;2023-04-25T11:44:15;2.50;;;2.30;;
15287;SDS011;7745;48.708;9.026;2023-04-25T11:46:46;2.63;;;2.37;;
15287;SDS011;7745;48.708;9.026;2023-04-25T11:49:14;3.50;;;2.50;;
15287;SDS011;7745;48.708;9.026;2023-04-25T11:51:45;2.70;;;2.50;;
15287;SDS011;7745;48.708;9.026;2023-04-25T11:54:35;2.50;;;2.30;;
15287;SDS011;7745;48.708;9.026;2023-04-25T11:57:02;2.80;;;2.60;;
15287;SDS011;7745;48.708;9.026;2023-04-25T11:59:29;3.10;;;2.80;;
15287;SDS011;7745;48.708;9.026;2023-04-25T12:01:57;3.50;;;3.13;;
15287;SDS011;7745;48.708;9.026;2023-04-25T12:04:26;2.57;;;2.37;;
15287;SDS011;7745;48.708;9.026;2023-04-25T12:06:57;2.20;;;2.00;;
15287;SDS011;7745;48.708;9.026;2023-04-25T12:09:27;2.27;;;2.00;;
15287;SDS011;7745;48.708;9.026;2023-04-25T12:11:57;2.47;;;2.27;;
15287;SDS011;7745;48.708;9.026;2023-04-25T12:14:28;3.93;;;2.20;;
15287;SDS011;7745;48.708;9.026;2023-04-25T12:16:58;2.30;;;2.10;;
15287;SDS011;7745;48.708;9.026;2023-04-25T12:19:26;2.90;;;2.70;;
15287;SDS011;7745;48.708;9.026;2023-04-25T12:21:57;2.93;;;2.73;;
15287;SDS011;7745;48.708;9.026;2023-04-25T12:24:24;4.60;;;3.20;;
15287;SDS011;7745;48.708;9.026;2023-04-25T12:26:52;4.53;;;4.13;;
15287;SDS011;7745;48.708;9.026;2023-04-25T12:29:25;4.37;;;3.97;;
15287;SDS011;7745;48.708;9.026;2023-04-25T12:31:53;5.73;;;4.20;;
15287;SDS011;7745;48.708;9.026;2023-04-25T12:34:22;4.73;;;3.73;;
15287;SDS011;7745;48.708;9.026;2023-04-25T12:36:50;4.07;;;3.67;;
15287;SDS011;7745;48.708;9.026;2023-04-25T12:39:18;4.57;;;4.00;;
15287;SDS011;7745;48.708;9.026;2023-04-25T12:41:47;4.20;;;3.80;;
15287;SDS011;7745;48.708;9.026;2023-04-25T12:44:13;4.67;;;4.27;;
15287;SDS011;7745;48.708;9.026;2023-04-25T12:46:41;4.50;;;4.10;;
15287;SDS011;7745;48.708;9.026;2023-04-25T12:49:07;4.93;;;4.43;;
15287;SDS011;7745;48.708;9.026;2023-04-25T12:51:36;4.73;;;4.13;;
15287;SDS011;7745;48.708;9.026;2023-04-25T12:54:08;6.33;;;4.67;;
15287;SDS011;7745;48.708;9.026;2023-04-25T12:56:35;5.33;;;4.83;;
15287;SDS011;7745;48.708;9.026;2023-04-25T12:59:07;5.50;;;4.73;;
15287;SDS011;7745;48.708;9.026;2023-04-25T13:01:35;5.23;;;4.73;;
15287;SDS011;7745;48.708;9.026;2023-04-25T13:04:03;6.20;;;4.87;;
15287;SDS011;7745;48.708;9.026;2023-04-25T13:06:36;5.67;;;4.30;;
15287;SDS011;7745;48.708;9.026;2023-04-25T13:09:03;5.77;;;4.97;;
15287;SDS011;7745;48.708;9.026;2023-04-25T13:11:32;5.23;;;4.73;;
15287;SDS011;7745;48.708;9.026;2023-04-25T13:14:00;7.87;;;5.80;;
15287;SDS011;7745;48.708;9.026;2023-04-25T13:16:30;6.43;;;5.57;;
15287;SDS011;7745;48.708;9.026;2023-04-25T13:19:01;6.97;;;5.57;;
15287;SDS011;7745;48.708;9.026;2023-04-25T13:21:29;8.10;;;5.57;;
15287;SDS011;7745;48.708;9.026;2023-04-25T13:23:58;7.43;;;5.70;;
15287;SDS011;7745;48.708;9.026;2023-04-25T13:26:28;7.37;;;5.87;;
15287;SDS011;7745;48.708;9.026;2023-04-25T13:28:55;7.83;;;6.10;;
15287;SDS011;7745;48.708;9.026;2023-04-25T13:31:22;6.97;;;6.27;;
15287;SDS011;7745;48.708;9.026;2023-04-25T13:33:49;9.13;;;6.13;;
15287;SDS011;7745;48.708;9.026;2023-04-25T13:36:16;8.33;;;5.80;;
15287;SDS011;7745;48.708;9.026;2023-04-25T13:38:43;9.90;;;6.43;;
15287;SDS011;7745;48.708;9.026;2023-04-25T13:41:13;7.50;;;6.53;;
15287;SDS011;7745;48.708;9.026;2023-04-25T13:43:43;8.23;;;6.60;;
15287;SDS011;7745;48.708;9.026;2023-04-25T13:46:11;6.97;;;6.30;;
15287;SDS011;7745;48.708;9.026;2023-04-25T13:48:40;6.63;;;5.97;;
15287;SDS011;7745;48.708;9.026;2023-04-25T13:51:11;6.00;;;5.33;;
15287;SDS011;7745;48.708;9.026;2023-04-25T13:53:42;6.77;;;6.10;;
15287;SDS011;7745;48.708;9.026;2023-04-25T13:56:17;9.13;;;7.03;;
15287;SDS011;7745;48.708;9.026;2023-04-25T13:58:45;7.30;;;6.60;;
15287;SDS011;7745;48.708;9.026;2023-04-25T14:01:12;7.93;;;6.90;;
15287;SDS011;7745;48.708;9.026;2023-04-25T14:03:39;7.03;;;6.33;;
15287;SDS011;7745;48.708;9.026;2023-04-25T14:06:06;8.30;;;6.93;;
15287;SDS011;7745;48.708;9.026;2023-04-25T14:08:33;7.57;;;6.87;;
15287;SDS011;7745;48.708;9.026;2023-04-25T14:11:01;8.20;;;6.97;;
15287;SDS011;7745;48.708;9.026;2023-04-25T14:13:29;8.17;;;7.17;;
15287;SDS011;7745;48.708;9.026;2023-04-25T14:18:09;7.97;;;6.03;;
15287;SDS011;7745;48.708;9.026;2023-04-25T14:19:18;6.17;;;5.57;;
15287;SDS011;7745;48.708;9.026;2023-04-25T14:21:45;7.60;;;6.23;;
15287;SDS011;7745;48.708;9.026;2023-04-25T14:24:12;5.87;;;4.90;;
15287;SDS011;7745;48.708;9.026;2023-04-25T14:26:40;7.10;;;4.93;;
15287;SDS011;7745;48.708;9.026;2023-04-25T14:29:08;5.20;;;4.70;;
15287;SDS011;7745;48.708;9.026;2023-04-25T14:31:36;6.40;;;4.70;;
15287;SDS011;7745;48.708;9.026;2023-04-25T14:34:04;7.23;;;4.93;;
15287;SDS011;7745;48.708;9.026;2023-04-25T14:36:33;5.83;;;4.63;;
15287;SDS011;7745;48.708;9.026;2023-04-25T14:39:01;6.23;;;4.93;;
15287;SDS011;7745;48.708;9.026;2023-04-25T14:41:29;5.50;;;5.00;;
15287;SDS011;7745;48.708;9.026;2023-04-25T14:43:56;7.37;;;5.23;;
15287;SDS011;7745;48.708;9.026;2023-04-25T14:46:24;7.07;;;5.00;;
15287;SDS011;7745;48.708;9.026;2023-04-25T14:48:51;5.57;;;4.40;;
15287;SDS011;7745;48.708;9.026;2023-04-25T14:51:20;4.67;;;4.27;;
15287;SDS011;7745;48.708;9.026;2023-04-25T14:53:47;6.17;;;4.10;;
15287;SDS011;7745;48.708;9.026;2023-04-25T14:56:15;5.77;;;3.70;;
15287;SDS011;7745;48.708;9.026;2023-04-25T14:58:41;3.67;;;3.37;;
15287;SDS011;7745;48.708;9.026;2023-04-25T15:01:08;4.80;;;3.07;;
15287;SDS011;7745;48.708;9.026;2023-04-25T15:03:37;5.60;;;4.07;;
15287;SDS011;7745;48.708;9.026;2023-04-25T15:06:04;6.50;;;3.70;;
15287;SDS011;7745;48.708;9.026;2023-04-25T15:08:32;4.40;;;3.50;;